createdAt,value
2023-03-28T00:01:10.668Z,94848.25
2023-03-28T00:03:40.300Z,94847.31
2023-03-28T00:06:18.273Z,94852.22
2023-03-28T00:08:45.965Z,94853.78
2023-03-28T00:11:21.630Z,94856.22
2023-03-28T00:13:53.469Z,94856.00
2023-03-28T00:16:19.946Z,94867.47
2023-03-28T00:18:46.576Z,94867.69
2023-03-28T00:21:23.134Z,94875.56
2023-03-28T00:23:54.556Z,94872.44
2023-03-28T00:26:22.082Z,94872.06
2023-03-28T00:28:48.856Z,94880.59
2023-03-28T00:31:15.701Z,94884.38
2023-03-28T00:33:42.151Z,94888.72
2023-03-28T00:36:10.342Z,94887.97
2023-03-28T00:38:38.573Z,94885.41
2023-03-28T00:41:05.780Z,94893.84
2023-03-28T00:43:52.425Z,94889.94
2023-03-28T00:46:29.698Z,94896.06
2023-03-28T00:49:05.796Z,94897.06
2023-03-28T00:51:38.156Z,94888.22
2023-03-28T00:54:07.698Z,94890.34
2023-03-28T00:56:37.594Z,94905.31
2023-03-28T00:59:08.009Z,94908.47
2023-03-28T01:01:34.828Z,94902.69
2023-03-28T01:04:06.836Z,94902.47
2023-03-28T01:06:37.757Z,94905.63
2023-03-28T01:09:07.927Z,94905.41
2023-03-28T01:11:36.789Z,94911.88
2023-03-28T01:14:04.394Z,94908.34
2023-03-28T01:16:31.134Z,94914.47
2023-03-28T01:19:03.592Z,94907.13
2023-03-28T01:21:54.729Z,94916.41
2023-03-28T01:25:04.328Z,94916.81
2023-03-28T01:27:52.093Z,94915.03
2023-03-28T01:30:47.325Z,94924.16
2023-03-28T01:34:24.301Z,94911.19
2023-03-28T01:37:06.077Z,94927.34
2023-03-28T01:40:06.736Z,94920.66
2023-03-28T01:43:05.249Z,94929.69
2023-03-28T01:45:43.569Z,94926.94
2023-03-28T01:48:21.998Z,94917.44
2023-03-28T01:51:08.800Z,94927.34
2023-03-28T01:53:47.685Z,94923.00
2023-03-28T01:56:53.221Z,94926.56
2023-03-28T01:59:37.817Z,94927.78
2023-03-28T02:02:37.485Z,94931.72
2023-03-28T02:05:25.957Z,94931.59
2023-03-28T02:07:54.529Z,94922.94
2023-03-28T02:10:38.843Z,94934.19
2023-03-28T02:13:35.241Z,94927.09
2023-03-28T02:16:26.617Z,94931.63
2023-03-28T02:19:01.834Z,94927.50
2023-03-28T02:22:09.098Z,94920.44
2023-03-28T02:24:54.224Z,94928.91
2023-03-28T02:27:39.404Z,94933.06
2023-03-28T02:30:17.440Z,94933.47
2023-03-28T02:32:50.429Z,94930.34
2023-03-28T02:35:26.003Z,94926.81
2023-03-28T02:38:08.628Z,94929.31
2023-03-28T02:41:06.778Z,94928.34
2023-03-28T02:43:59.452Z,94921.63
2023-03-28T02:46:50.628Z,94923.63
2023-03-28T02:49:50.016Z,94929.53
2023-03-28T02:52:23.592Z,94935.03
2023-03-28T02:54:58.606Z,94929.50
2023-03-28T02:57:36.487Z,94932.63
2023-03-28T03:00:12.009Z,94932.63
2023-03-28T03:02:41.850Z,94930.06
2023-03-28T03:05:09.723Z,94933.44
2023-03-28T03:07:37.674Z,94934.19
2023-03-28T03:10:09.532Z,94937.34
2023-03-28T03:12:36.665Z,94936.97
2023-03-28T03:15:05.150Z,94939.31
2023-03-28T03:17:47.922Z,94936.19
2023-03-28T03:20:16.587Z,94938.34
2023-03-28T03:22:43.504Z,94942.31
2023-03-28T03:25:13.882Z,94946.03
2023-03-28T03:27:53.486Z,94942.88
2023-03-28T03:30:20.362Z,94942.31
2023-03-28T03:33:17.229Z,94944.69
2023-03-28T03:35:48.395Z,94943.34
2023-03-28T03:38:16.054Z,94941.41
2023-03-28T03:40:42.519Z,94940.47
2023-03-28T03:43:09.756Z,94941.66
2023-03-28T03:45:40.519Z,94941.28
2023-03-28T03:48:08.271Z,94943.47
2023-03-28T03:50:34.955Z,94938.78
2023-03-28T03:53:03.019Z,94944.13
2023-03-28T03:55:40.591Z,94945.13
2023-03-28T03:58:07.619Z,94947.53
2023-03-28T04:00:37.542Z,94952.50
2023-03-28T04:03:13.108Z,94936.63
2023-03-28T04:05:52.740Z,94948.75
2023-03-28T04:08:19.153Z,94957.44
2023-03-28T04:10:48.032Z,94955.09
2023-03-28T04:13:15.117Z,94958.63
2023-03-28T04:15:43.049Z,94958.63
2023-03-28T04:18:29.698Z,94955.91
2023-03-28T04:21:01.542Z,94961.41
2023-03-28T04:23:38.672Z,94947.66
2023-03-28T04:26:08.693Z,94957.50
2023-03-28T04:28:48.024Z,94962.22
2023-03-28T04:31:14.438Z,94968.34
2023-03-28T04:34:07.329Z,94970.34
2023-03-28T04:36:42.256Z,94965.81
2023-03-28T04:39:08.853Z,94970.94
2023-03-28T04:41:55.450Z,94979.63
2023-03-28T04:44:29.688Z,94981.19
2023-03-28T04:47:01.784Z,94983.34
2023-03-28T04:49:28.468Z,94985.28
2023-03-28T04:51:55.203Z,94986.63
2023-03-28T04:54:21.813Z,94992.94
2023-03-28T04:56:48.297Z,94987.41
2023-03-28T04:59:20.128Z,94993.69
2023-03-28T05:01:49.753Z,94989.34
2023-03-28T05:04:26.646Z,94992.69
2023-03-28T05:06:54.050Z,94997.19
2023-03-28T05:09:20.815Z,95008.22
2023-03-28T05:11:48.025Z,95006.69
2023-03-28T05:14:14.670Z,95003.91
2023-03-28T05:16:47.568Z,95010.22
2023-03-28T05:19:40.310Z,95013.19
2023-03-28T05:22:15.303Z,95011.44
2023-03-28T05:24:42.865Z,95012.63
2023-03-28T05:27:17.309Z,95010.06
2023-03-28T05:29:44.082Z,95018.31
2023-03-28T05:32:12.729Z,95012.22
2023-03-28T05:34:40.261Z,95022.22
2023-03-28T05:37:06.702Z,95026.16
2023-03-28T05:39:43.496Z,95022.03
2023-03-28T05:42:10.312Z,95023.19
2023-03-28T05:44:39.400Z,95028.31
2023-03-28T05:47:29.088Z,95029.09
2023-03-28T05:49:57.007Z,95035.44
2023-03-28T05:52:23.636Z,95038.00
2023-03-28T05:54:52.340Z,95038.56
2023-03-28T05:57:21.380Z,95042.69
2023-03-28T05:59:48.441Z,95045.63
2023-03-28T06:02:20.497Z,95048.78
2023-03-28T06:04:47.518Z,95060.97
2023-03-28T06:07:14.922Z,95059.00
2023-03-28T06:09:42.997Z,95052.31
2023-03-28T06:12:10.627Z,95054.47
2023-03-28T06:14:41.939Z,95056.63
2023-03-28T06:17:17.597Z,95060.50
2023-03-28T06:19:49.114Z,95066.59
2023-03-28T06:22:15.670Z,95072.25
2023-03-28T06:24:46.432Z,95079.72
2023-03-28T06:27:12.965Z,95071.44
2023-03-28T06:29:39.448Z,95082.00
2023-03-28T06:32:06.770Z,95081.38
2023-03-28T06:34:33.259Z,95076.22
2023-03-28T06:37:01.942Z,95070.72
2023-03-28T06:39:42.661Z,95082.72
2023-03-28T06:42:10.048Z,95072.03
2023-03-28T06:44:46.641Z,95082.03
2023-03-28T06:47:35.930Z,95083.38
2023-03-28T06:50:02.550Z,95087.06
2023-03-28T06:52:38.560Z,95089.53
2023-03-28T06:55:08.066Z,95095.75
2023-03-28T06:57:34.489Z,95093.56
2023-03-28T07:00:33.292Z,95103.66
2023-03-28T07:03:26.252Z,95102.44
2023-03-28T07:05:52.903Z,95107.72
2023-03-28T07:08:19.375Z,95103.53
2023-03-28T07:10:46.382Z,95108.44
2023-03-28T07:13:13.729Z,95111.75
2023-03-28T07:16:01.950Z,95121.38
2023-03-28T07:18:28.666Z,95121.53
2023-03-28T07:21:04.164Z,95133.75
2023-03-28T07:23:32.550Z,95137.69
2023-03-28T07:25:58.988Z,95138.78
2023-03-28T07:28:25.773Z,95131.78
2023-03-28T07:30:56.335Z,95123.16
2023-03-28T07:33:29.074Z,95109.31
2023-03-28T07:36:15.025Z,95140.44
2023-03-28T07:38:44.530Z,95140.22
2023-03-28T07:41:12.760Z,95147.78
2023-03-28T07:43:40.039Z,95146.06
2023-03-28T07:46:09.400Z,95144.88
2023-03-28T07:48:37.718Z,95152.72
2023-03-28T07:51:06.374Z,95162.84
2023-03-28T07:53:33.798Z,95156.94
2023-03-28T07:56:00.768Z,95160.19
2023-03-28T07:58:56.876Z,95160.69
2023-03-28T08:01:23.553Z,95166.91
2023-03-28T08:03:54.655Z,95157.69
2023-03-28T08:06:32.042Z,95173.06
2023-03-28T08:09:00.756Z,95176.56
2023-03-28T08:11:42.969Z,95167.31
2023-03-28T08:14:13.259Z,95170.00
2023-03-28T08:16:40.573Z,95162.81
2023-03-28T08:19:11.457Z,95164.81
2023-03-28T08:21:55.682Z,95170.13
2023-03-28T08:24:33.024Z,95175.88
2023-03-28T08:27:07.855Z,95177.78
2023-03-28T08:29:34.348Z,95170.44
2023-03-28T08:32:00.917Z,95168.84
2023-03-28T08:34:27.422Z,95166.59
2023-03-28T08:36:59.090Z,95177.78
2023-03-28T08:39:27.173Z,95172.06
2023-03-28T08:42:06.822Z,95172.19
2023-03-28T08:44:58.104Z,95167.84
2023-03-28T08:47:32.961Z,95171.38
2023-03-28T08:50:07.949Z,95171.41
2023-03-28T08:52:35.941Z,95169.03
2023-03-28T08:55:13.658Z,95173.94
2023-03-28T08:57:42.365Z,95177.59
2023-03-28T09:00:27.909Z,95179.09
2023-03-28T09:02:55.505Z,95180.34
2023-03-28T09:05:39.235Z,95175.06
2023-03-28T09:08:32.379Z,95173.84
2023-03-28T09:11:13.483Z,95179.53
2023-03-28T09:14:06.117Z,95178.38
2023-03-28T09:17:02.968Z,95181.50
2023-03-28T09:19:48.205Z,95177.50
2023-03-28T09:23:06.044Z,95184.38
2023-03-28T09:26:07.772Z,95172.50
2023-03-28T09:29:01.901Z,95182.81
2023-03-28T09:31:44.447Z,95186.38
2023-03-28T09:34:27.334Z,95188.84
2023-03-28T09:37:01.054Z,95188.53
2023-03-28T09:39:36.841Z,95189.19
2023-03-28T09:42:08.049Z,95184.28
2023-03-28T09:45:20.511Z,95185.72
2023-03-28T09:47:53.270Z,95184.84
2023-03-28T09:50:23.788Z,95188.19
2023-03-28T09:52:56.893Z,95180.13
2023-03-28T09:55:27.190Z,95180.69
2023-03-28T09:58:09.920Z,95175.91
2023-03-28T10:01:23.035Z,95174.44
2023-03-28T10:04:31.249Z,95180.22
2023-03-28T10:07:33.615Z,95168.84
2023-03-28T10:10:24.819Z,95167.22
2023-03-28T10:13:02.672Z,95166.88
2023-03-28T10:15:32.772Z,95167.66
2023-03-28T10:18:21.071Z,95166.63
2023-03-28T10:21:14.813Z,95166.31
2023-03-28T10:23:47.933Z,95161.81
2023-03-28T10:26:22.050Z,95165.44
2023-03-28T10:28:54.098Z,95163.56
2023-03-28T10:31:31.790Z,95160.66
2023-03-28T10:34:25.784Z,95155.63
2023-03-28T10:36:58.118Z,95158.88
2023-03-28T10:39:34.232Z,95157.69
2023-03-28T10:42:22.602Z,95162.63
2023-03-28T10:45:20.148Z,95162.13
2023-03-28T10:47:52.537Z,95152.97
2023-03-28T10:50:29.602Z,95153.94
2023-03-28T10:53:34.007Z,95156.13
2023-03-28T10:56:18.338Z,95153.38
2023-03-28T10:59:17.149Z,95140.47
2023-03-28T11:02:07.356Z,95148.59
2023-03-28T11:05:01.542Z,95146.72
2023-03-28T11:07:49.490Z,95147.03
2023-03-28T11:10:42.750Z,95144.53
2023-03-28T11:13:42.328Z,95140.78
2023-03-28T11:16:35.391Z,95133.91
2023-03-28T11:19:45.649Z,95128.63
2023-03-28T11:22:24.412Z,95134.66
2023-03-28T11:25:08.481Z,95125.97
2023-03-28T11:28:16.153Z,95126.38
2023-03-28T11:30:49.763Z,95121.53
2023-03-28T11:34:04.979Z,95110.47
2023-03-28T11:36:46.322Z,95122.78
2023-03-28T11:39:50.792Z,95105.06
2023-03-28T11:42:34.739Z,95104.59
2023-03-28T11:45:46.695Z,95116.06
2023-03-28T11:48:26.286Z,95096.00
2023-03-28T11:51:05.927Z,95104.66
2023-03-28T11:54:08.421Z,95105.47
2023-03-28T11:57:03.986Z,95094.53
2023-03-28T11:59:53.676Z,95095.06
2023-03-28T12:02:41.775Z,95097.69
2023-03-28T12:05:18.350Z,95087.03
2023-03-28T12:08:13.111Z,95086.22
2023-03-28T12:10:45.837Z,95086.75
2023-03-28T12:13:45.485Z,95078.16
2023-03-28T12:16:21.804Z,95073.47
2023-03-28T12:18:52.262Z,95071.56
2023-03-28T12:21:59.480Z,95070.00
2023-03-28T12:24:57.963Z,95061.38
2023-03-28T12:28:04.510Z,95071.31
2023-03-28T12:30:40.421Z,95058.13
2023-03-28T12:33:24.208Z,95056.03
2023-03-28T12:36:10.488Z,95044.06
2023-03-28T12:38:59.822Z,95049.72
2023-03-28T12:41:36.326Z,95062.72
2023-03-28T12:44:08.241Z,95056.03
2023-03-28T12:47:01.716Z,95043.47
2023-03-28T12:49:37.024Z,95035.47
2023-03-28T12:52:14.469Z,95037.13
2023-03-28T12:55:07.267Z,95033.16
2023-03-28T12:57:46.297Z,95027.59
2023-03-28T13:00:48.771Z,95022.78
2023-03-28T13:03:58.084Z,95014.56
2023-03-28T13:07:14.728Z,95030.81
2023-03-28T13:10:24.100Z,95024.00
2023-03-28T13:13:06.384Z,95021.28
2023-03-28T13:15:33.584Z,95013.44
2023-03-28T13:18:22.232Z,95013.25
2023-03-28T13:20:51.862Z,95012.75
2023-03-28T13:23:25.218Z,95008.56
2023-03-28T13:25:56.596Z,95004.22
2023-03-28T13:28:32.330Z,95004.97
2023-03-28T13:31:07.786Z,95006.59
2023-03-28T13:33:38.178Z,95001.53
2023-03-28T13:36:04.763Z,95001.88
2023-03-28T13:38:33.530Z,94998.78
2023-03-28T13:41:06.200Z,94996.66
2023-03-28T13:43:39.496Z,95006.47
2023-03-28T13:46:18.713Z,95008.63
2023-03-28T13:49:09.631Z,94996.16
2023-03-28T13:51:42.281Z,94985.94
2023-03-28T13:54:10.862Z,94986.41
2023-03-28T13:56:44.390Z,94981.06
2023-03-28T13:59:26.770Z,94983.47
2023-03-28T14:01:54.866Z,94984.94
2023-03-28T14:04:49.510Z,94984.09
2023-03-28T14:07:16.244Z,94974.72
2023-03-28T14:09:42.732Z,94969.28
2023-03-28T14:12:14.380Z,94963.16
2023-03-28T14:14:51.414Z,94971.47
2023-03-28T14:17:25.096Z,94975.59
2023-03-28T14:20:17.344Z,94980.13
2023-03-28T14:22:59.626Z,94970.03
2023-03-28T14:25:28.588Z,94952.81
2023-03-28T14:27:56.918Z,94957.13
2023-03-28T14:30:38.835Z,94957.31
2023-03-28T14:33:20.274Z,94954.31
2023-03-28T14:36:02.752Z,94954.81
2023-03-28T14:38:33.594Z,94945.47
2023-03-28T14:41:13.116Z,94946.22
2023-03-28T14:43:39.767Z,94931.22
2023-03-28T14:46:09.198Z,94938.19
2023-03-28T14:48:38.128Z,94935.03
2023-03-28T14:51:05.888Z,94932.06
2023-03-28T14:53:40.200Z,94928.28
2023-03-28T14:56:14.021Z,94923.47
2023-03-28T14:58:43.364Z,94922.34
2023-03-28T15:01:15.781Z,94917.09
2023-03-28T15:03:46.370Z,94916.91
2023-03-28T15:06:18.542Z,94908.38
2023-03-28T15:08:45.528Z,94907.63
2023-03-28T15:11:32.377Z,94898.72
2023-03-28T15:14:12.723Z,94895.56
2023-03-28T15:16:42.602Z,94904.34
2023-03-28T15:19:19.418Z,94894.34
2023-03-28T15:21:54.297Z,94901.22
2023-03-28T15:24:21.144Z,94896.84
2023-03-28T15:26:51.294Z,94896.63
2023-03-28T15:29:20.611Z,94884.31
2023-03-28T15:31:48.121Z,94877.25
2023-03-28T15:34:24.189Z,94870.41
2023-03-28T15:37:02.548Z,94877.59
2023-03-28T15:39:34.736Z,94866.94
2023-03-28T15:42:19.549Z,94863.47
2023-03-28T15:45:21.235Z,94852.91
2023-03-28T15:47:49.945Z,94866.44
2023-03-28T15:50:29.283Z,94862.78
2023-03-28T15:52:57.980Z,94871.22
2023-03-28T15:55:26.987Z,94862.91
2023-03-28T15:57:55.197Z,94852.75
2023-03-28T16:00:52.607Z,94859.44
2023-03-28T16:03:24.808Z,94864.72
2023-03-28T16:06:01.837Z,94851.56
2023-03-28T16:08:40.137Z,94843.63
2023-03-28T16:11:14.633Z,94850.38
2023-03-28T16:14:01.044Z,94840.69
2023-03-28T16:16:46.457Z,94851.03
2023-03-28T16:19:22.784Z,94845.97
2023-03-28T16:21:50.457Z,94837.78
2023-03-28T16:24:17.586Z,94845.81
2023-03-28T16:26:44.339Z,94837.31
2023-03-28T16:29:11.352Z,94841.59
2023-03-28T16:31:38.063Z,94835.16
2023-03-28T16:34:07.078Z,94837.75
2023-03-28T16:36:35.033Z,94835.16
2023-03-28T16:39:01.656Z,94833.19
2023-03-28T16:41:28.209Z,94833.84
2023-03-28T16:43:54.617Z,94833.25
2023-03-28T16:46:21.345Z,94832.31
2023-03-28T16:48:47.861Z,94837.06
2023-03-28T16:51:14.300Z,94831.13
2023-03-28T16:53:41.097Z,94836.59
2023-03-28T16:56:11.839Z,94822.06
2023-03-28T16:58:39.332Z,94813.81
2023-03-28T17:01:09.384Z,94813.97
2023-03-28T17:03:36.628Z,94815.16
2023-03-28T17:06:06.126Z,94813.81
2023-03-28T17:08:32.521Z,94809.94
2023-03-28T17:11:00.060Z,94805.06
2023-03-28T17:13:27.370Z,94808.22
2023-03-28T17:15:55.048Z,94806.38
2023-03-28T17:18:21.549Z,94810.47
2023-03-28T17:20:58.701Z,94816.22
2023-03-28T17:23:25.575Z,94807.44
2023-03-28T17:25:54.641Z,94804.88
2023-03-28T17:28:21.773Z,94807.06
2023-03-28T17:30:48.417Z,94813.38
2023-03-28T17:33:15.192Z,94810.00
2023-03-28T17:35:41.688Z,94807.09
2023-03-28T17:38:08.847Z,94802.13
2023-03-28T17:40:36.371Z,94804.13
2023-03-28T17:43:03.985Z,94798.28
2023-03-28T17:45:30.809Z,94792.63
2023-03-28T17:47:57.428Z,94791.84
2023-03-28T17:50:25.150Z,94781.75
2023-03-28T17:52:51.742Z,94783.00
2023-03-28T17:55:18.286Z,94777.50
2023-03-28T17:57:44.761Z,94781.09
2023-03-28T18:00:11.677Z,94786.50
2023-03-28T18:02:45.913Z,94779.19
2023-03-28T18:05:28.557Z,94779.94
2023-03-28T18:07:57.587Z,94775.22
2023-03-28T18:10:24.472Z,94770.53
2023-03-28T18:12:51.436Z,94777.19
2023-03-28T18:15:18.054Z,94767.59
2023-03-28T18:17:45.115Z,94781.81
2023-03-28T18:20:12.751Z,94774.25
2023-03-28T18:22:39.385Z,94776.03
2023-03-28T18:25:06.513Z,94786.88
2023-03-28T18:27:33.060Z,94788.16
2023-03-28T18:30:04.745Z,94794.09
2023-03-28T18:32:31.937Z,94790.44
2023-03-28T18:34:58.369Z,94788.34
2023-03-28T18:37:24.841Z,94780.31
2023-03-28T18:39:51.229Z,94791.94
2023-03-28T18:42:17.672Z,94793.47
2023-03-28T18:44:44.056Z,94786.22
2023-03-28T18:47:10.657Z,94783.38
2023-03-28T18:49:37.088Z,94778.75
2023-03-28T18:52:06.787Z,94782.88
2023-03-28T18:54:34.656Z,94772.50
2023-03-28T18:57:01.565Z,94774.06
2023-03-28T18:59:28.039Z,94768.66
2023-03-28T19:01:54.673Z,94766.56
2023-03-28T19:04:23.476Z,94767.84
2023-03-28T19:06:51.775Z,94762.88
2023-03-28T19:09:18.211Z,94760.31
2023-03-28T19:11:45.448Z,94755.66
2023-03-28T19:14:11.816Z,94752.81
2023-03-28T19:16:38.291Z,94748.63
2023-03-28T19:19:04.818Z,94749.59
2023-03-28T19:21:31.346Z,94746.19
2023-03-28T19:23:57.757Z,94734.81
2023-03-28T19:26:24.353Z,94735.28
2023-03-28T19:28:53.507Z,94729.56
2023-03-28T19:31:21.832Z,94733.50
2023-03-28T19:33:48.703Z,94731.41
2023-03-28T19:36:15.382Z,94730.63
2023-03-28T19:38:42.011Z,94732.94
2023-03-28T19:41:19.934Z,94730.91
2023-03-28T19:43:47.873Z,94732.44
2023-03-28T19:46:26.868Z,94731.44
2023-03-28T19:49:01.179Z,94733.75
2023-03-28T19:51:28.374Z,94733.53
2023-03-28T19:53:55.552Z,94742.59
2023-03-28T19:56:23.438Z,94741.31
2023-03-28T19:58:51.865Z,94727.56
2023-03-28T20:01:18.632Z,94744.41
2023-03-28T20:03:46.847Z,94740.25
2023-03-28T20:06:13.823Z,94738.97
2023-03-28T20:08:40.871Z,94728.63
2023-03-28T20:11:08.709Z,94731.47
2023-03-28T20:13:36.032Z,94732.75
2023-03-28T20:16:04.464Z,94741.31
2023-03-28T20:18:32.423Z,94743.63
2023-03-28T20:21:01.485Z,94737.94
2023-03-28T20:23:29.954Z,94738.97
2023-03-28T20:25:58.645Z,94729.13
2023-03-28T20:28:25.627Z,94735.63
2023-03-28T20:30:53.332Z,94725.50
2023-03-28T20:33:20.586Z,94721.41
2023-03-28T20:35:58.270Z,94725.31
2023-03-28T20:38:27.827Z,94721.41
2023-03-28T20:40:54.244Z,94720.13
2023-03-28T20:43:20.987Z,94713.41
2023-03-28T20:45:55.284Z,94717.25
2023-03-28T20:48:34.978Z,94717.25
2023-03-28T20:51:05.841Z,94694.16
2023-03-28T20:53:33.140Z,94702.50
2023-03-28T20:56:04.750Z,94703.28
2023-03-28T20:58:32.591Z,94704.81
2023-03-28T21:01:01.254Z,94706.38
2023-03-28T21:03:48.159Z,94707.94
2023-03-28T21:06:16.617Z,94691.66
2023-03-28T21:08:45.849Z,94683.91
2023-03-28T21:11:16.957Z,94684.13
2023-03-28T21:13:43.889Z,94684.13
2023-03-28T21:16:12.145Z,94666.03
2023-03-28T21:18:38.632Z,94657.22
2023-03-28T21:21:07.222Z,94673.22
2023-03-28T21:23:38.901Z,94662.88
2023-03-28T21:26:07.128Z,94691.31
2023-03-28T21:28:34.605Z,94699.00
2023-03-28T21:31:10.230Z,94685.84
2023-03-28T21:33:38.254Z,94685.06
2023-03-28T21:36:07.268Z,94699.56
2023-03-28T21:38:34.804Z,94685.84
2023-03-28T21:41:01.602Z,94681.94
2023-03-28T21:43:28.229Z,94683.00
2023-03-28T21:45:54.683Z,94677.59
2023-03-28T21:48:21.138Z,94678.91
2023-03-28T21:50:50.042Z,94674.25
2023-03-28T21:53:16.463Z,94674.53
2023-03-28T21:55:42.861Z,94676.09
2023-03-28T21:58:09.240Z,94695.22
2023-03-28T22:00:35.709Z,94695.47
2023-03-28T22:03:02.142Z,94700.91
2023-03-28T22:05:29.675Z,94708.38
2023-03-28T22:07:57.779Z,94715.59
2023-03-28T22:10:29.331Z,94719.69
2023-03-28T22:12:58.733Z,94710.34
2023-03-28T22:15:26.165Z,94696.66
2023-03-28T22:17:58.104Z,94682.44
2023-03-28T22:20:27.392Z,94660.00
2023-03-28T22:22:54.305Z,94644.25
2023-03-28T22:25:22.531Z,94652.31
2023-03-28T22:27:49.016Z,94658.28
2023-03-28T22:30:15.419Z,94644.88
2023-03-28T22:32:41.892Z,94637.13
2023-03-28T22:35:08.631Z,94621.66
2023-03-28T22:37:35.059Z,94628.38
2023-03-28T22:40:01.757Z,94653.25
2023-03-28T22:42:28.700Z,94643.91
2023-03-28T22:44:55.092Z,94673.41
2023-03-28T22:47:21.539Z,94673.41
2023-03-28T22:49:47.941Z,94668.16
2023-03-28T22:52:14.315Z,94666.59
2023-03-28T22:54:42.593Z,94657.28
2023-03-28T22:57:09.301Z,94629.84
2023-03-28T22:59:36.348Z,94646.94
2023-03-28T23:02:03.513Z,94646.13
2023-03-28T23:04:30.061Z,94643.50
2023-03-28T23:06:58.483Z,94656.66
2023-03-28T23:09:27.282Z,94672.75
2023-03-28T23:11:55.055Z,94677.41
2023-03-28T23:14:22.096Z,94679.44
2023-03-28T23:16:48.745Z,94664.94
2023-03-28T23:19:16.255Z,94656.44
2023-03-28T23:21:42.936Z,94670.16
2023-03-28T23:24:09.660Z,94681.50
2023-03-28T23:26:36.050Z,94680.72
2023-03-28T23:29:02.730Z,94689.78
2023-03-28T23:31:29.199Z,94705.06
2023-03-28T23:33:55.875Z,94722.34
2023-03-28T23:36:22.305Z,94705.38
2023-03-28T23:38:48.749Z,94681.44
2023-03-28T23:41:15.435Z,94701.50
2023-03-28T23:43:41.877Z,94704.75
2023-03-28T23:46:08.945Z,94697.69
2023-03-28T23:48:36.179Z,94691.72
2023-03-28T23:51:03.068Z,94691.66
2023-03-28T23:53:30.394Z,94681.22
2023-03-28T23:55:56.798Z,94678.09
2023-03-28T23:58:23.184Z,94672.34
